createdAt,value
2019-03-23T00:01:43.348Z,38.73
2019-03-23T00:04:13.698Z,38.97
2019-03-23T00:06:44.075Z,43.17
2019-03-23T00:09:14.501Z,38.97
2019-03-23T00:11:44.822Z,31.97
2019-03-23T00:14:15.187Z,30.30
2019-03-23T00:16:45.608Z,32.20
2019-03-23T00:19:15.972Z,31.63
2019-03-23T00:21:46.351Z,30.43
2019-03-23T00:24:16.723Z,28.63
2019-03-23T00:26:47.095Z,30.53
2019-03-23T00:29:17.457Z,31.43
2019-03-23T00:31:47.840Z,29.43
2019-03-23T00:34:18.281Z,27.07
2019-03-23T00:36:48.656Z,24.53
2019-03-23T00:39:19.055Z,23.43
2019-03-23T00:41:49.422Z,23.23
2019-03-23T00:44:19.799Z,21.63
2019-03-23T00:46:50.975Z,21.27
2019-03-23T00:49:21.402Z,20.17
2019-03-23T00:51:51.776Z,19.47
2019-03-23T00:54:22.159Z,24.83
2019-03-23T00:56:52.518Z,29.17
2019-03-23T00:59:22.885Z,21.80
2019-03-23T01:01:53.248Z,26.70
2019-03-23T01:04:23.629Z,21.83
2019-03-23T01:06:53.995Z,18.80
2019-03-23T01:09:24.380Z,19.53
2019-03-23T01:11:54.746Z,18.60
2019-03-23T01:14:25.149Z,18.50
2019-03-23T01:16:55.531Z,17.47
2019-03-23T01:19:25.905Z,17.17
2019-03-23T01:21:56.293Z,17.13
2019-03-23T01:24:26.662Z,16.63
2019-03-23T01:26:57.065Z,16.37
2019-03-23T01:29:27.437Z,19.27
2019-03-23T01:31:57.830Z,22.83
2019-03-23T01:34:28.193Z,21.47
2019-03-23T01:37:02.663Z,19.57
2019-03-23T01:39:30.612Z,17.10
2019-03-23T01:42:00.980Z,16.67
2019-03-23T01:44:31.345Z,14.90
2019-03-23T01:47:01.707Z,14.77
2019-03-23T01:49:32.060Z,15.27
2019-03-23T01:52:02.429Z,14.10
2019-03-23T01:54:32.798Z,14.83
2019-03-23T01:57:03.162Z,13.77
2019-03-23T01:59:33.532Z,13.80
2019-03-23T02:02:03.938Z,14.53
2019-03-23T02:04:34.314Z,14.97
2019-03-23T02:07:13.462Z,13.67
2019-03-23T02:09:37.159Z,12.90
2019-03-23T02:12:07.523Z,13.33
2019-03-23T02:14:37.906Z,13.73
2019-03-23T02:17:08.284Z,12.60
2019-03-23T02:19:38.655Z,11.00
2019-03-23T02:22:09.035Z,12.20
2019-03-23T02:24:39.511Z,11.93
2019-03-23T02:27:09.891Z,11.53
2019-03-23T02:29:40.256Z,11.73
2019-03-23T02:32:10.627Z,11.03
2019-03-23T02:34:40.996Z,11.50
2019-03-23T02:37:11.343Z,12.53
2019-03-23T02:39:41.717Z,11.60
2019-03-23T02:42:12.100Z,10.93
2019-03-23T02:44:42.537Z,12.20
2019-03-23T02:47:12.901Z,12.40
2019-03-23T02:49:43.271Z,14.03
2019-03-23T02:52:13.644Z,14.70
2019-03-23T02:54:43.996Z,13.60
2019-03-23T02:57:14.366Z,16.57
2019-03-23T02:59:44.741Z,15.03
2019-03-23T03:02:15.143Z,17.60
2019-03-23T03:04:45.510Z,15.77
2019-03-23T03:07:15.884Z,14.17
2019-03-23T03:09:46.259Z,15.07
2019-03-23T03:12:16.614Z,13.87
2019-03-23T03:14:48.009Z,13.27
2019-03-23T03:17:18.344Z,13.73
2019-03-23T03:19:48.701Z,13.93
2019-03-23T03:22:19.078Z,13.73
2019-03-23T03:24:49.456Z,13.77
2019-03-23T03:27:19.836Z,14.30
2019-03-23T03:29:50.238Z,14.07
2019-03-23T03:32:20.639Z,14.97
2019-03-23T03:34:51.028Z,13.77
2019-03-23T03:37:21.377Z,14.67
2019-03-23T03:39:51.749Z,15.57
2019-03-23T03:42:22.117Z,15.63
2019-03-23T03:44:52.524Z,17.73
2019-03-23T03:47:22.960Z,17.73
2019-03-23T03:49:53.325Z,15.37
2019-03-23T03:52:23.729Z,15.70
2019-03-23T03:54:54.104Z,15.90
2019-03-23T03:57:24.444Z,15.13
2019-03-23T03:59:54.793Z,15.07
2019-03-23T04:02:25.194Z,15.80
2019-03-23T04:04:55.546Z,15.57
2019-03-23T04:07:25.929Z,16.07
2019-03-23T04:09:56.294Z,14.87
2019-03-23T04:12:26.676Z,17.27
2019-03-23T04:14:57.051Z,15.87
2019-03-23T04:17:28.083Z,16.23
2019-03-23T04:19:58.462Z,16.07
2019-03-23T04:22:28.844Z,15.97
2019-03-23T04:24:59.198Z,17.40
2019-03-23T04:27:29.569Z,17.63
2019-03-23T04:29:59.939Z,16.17
2019-03-23T04:32:30.355Z,17.20
2019-03-23T04:35:00.713Z,17.33
2019-03-23T04:37:31.145Z,16.43
2019-03-23T04:40:01.525Z,17.23
2019-03-23T04:42:31.947Z,18.93
2019-03-23T04:45:02.334Z,17.43
2019-03-23T04:47:32.688Z,17.63
2019-03-23T04:50:03.425Z,18.43
2019-03-23T04:52:33.808Z,19.33
2019-03-23T04:55:07.753Z,18.60
2019-03-23T04:57:38.574Z,19.23
2019-03-23T05:00:12.071Z,18.20
2019-03-23T05:02:42.490Z,17.13
2019-03-23T05:05:13.024Z,20.00
2019-03-23T05:07:45.271Z,20.37
2019-03-23T05:10:15.934Z,18.13
2019-03-23T05:12:46.307Z,20.27
2019-03-23T05:15:16.904Z,19.50
2019-03-23T05:17:47.277Z,21.30
2019-03-23T05:20:26.140Z,21.53
2019-03-23T05:22:56.505Z,20.60
2019-03-23T05:25:28.314Z,20.53
2019-03-23T05:27:58.969Z,20.10
2019-03-23T05:30:29.418Z,21.13
2019-03-23T05:33:01.759Z,19.53
2019-03-23T05:35:32.183Z,20.10
2019-03-23T05:38:02.521Z,22.03
2019-03-23T05:40:32.905Z,25.17
2019-03-23T05:43:03.274Z,23.57
2019-03-23T05:45:33.655Z,23.73
2019-03-23T05:48:04.115Z,25.80
2019-03-23T05:50:34.606Z,27.27
2019-03-23T05:53:05.307Z,27.50
2019-03-23T05:55:35.673Z,26.77
2019-03-23T05:58:06.074Z,24.77
2019-03-23T06:00:36.477Z,25.30
2019-03-23T06:03:06.843Z,25.20
2019-03-23T06:05:37.200Z,24.53
2019-03-23T06:08:07.553Z,26.90
2019-03-23T06:10:37.924Z,26.47
2019-03-23T06:13:08.502Z,26.00
2019-03-23T06:15:38.902Z,27.43
2019-03-23T06:18:09.251Z,30.03
2019-03-23T06:20:39.626Z,28.50
2019-03-23T06:23:09.999Z,28.97
2019-03-23T06:25:40.393Z,29.63
2019-03-23T06:28:12.201Z,26.87
2019-03-23T06:30:42.573Z,28.17
2019-03-23T06:33:12.947Z,28.57
2019-03-23T06:35:43.329Z,30.67
2019-03-23T06:38:13.714Z,39.00
2019-03-23T06:40:44.107Z,45.13
2019-03-23T06:43:14.489Z,42.70
2019-03-23T06:45:44.867Z,53.07
2019-03-23T06:48:15.269Z,45.17
2019-03-23T06:50:45.626Z,48.13
2019-03-23T06:53:15.992Z,42.63
2019-03-23T06:55:46.369Z,39.43
2019-03-23T06:58:16.750Z,35.40
2019-03-23T07:00:47.130Z,33.00
2019-03-23T07:03:17.544Z,36.23
2019-03-23T07:05:47.754Z,34.97
2019-03-23T07:08:18.133Z,34.27
2019-03-23T07:10:48.608Z,39.87
2019-03-23T07:13:18.992Z,37.07
2019-03-23T07:15:49.340Z,35.83
2019-03-23T07:18:19.714Z,36.43
2019-03-23T07:20:50.064Z,36.63
2019-03-23T07:23:20.444Z,37.23
2019-03-23T07:25:50.813Z,45.37
2019-03-23T07:28:21.181Z,41.13
2019-03-23T07:30:51.562Z,38.23
2019-03-23T07:33:21.949Z,38.13
2019-03-23T07:35:52.318Z,38.10
2019-03-23T07:38:22.939Z,37.27
2019-03-23T07:40:53.291Z,39.77
2019-03-23T07:43:23.658Z,36.03
2019-03-23T07:45:54.093Z,39.40
2019-03-23T07:48:24.470Z,39.00
2019-03-23T07:50:54.868Z,42.50
2019-03-23T07:53:25.247Z,41.03
2019-03-23T07:55:56.240Z,40.50
2019-03-23T07:58:26.638Z,39.27
2019-03-23T08:00:57.030Z,38.97
2019-03-23T08:03:27.426Z,38.87
2019-03-23T08:05:58.331Z,40.37
2019-03-23T08:08:28.681Z,40.60
2019-03-23T08:10:59.037Z,39.37
2019-03-23T08:13:29.466Z,40.47
2019-03-23T08:15:59.969Z,41.33
2019-03-23T08:18:30.341Z,37.23
2019-03-23T08:21:00.727Z,38.07
2019-03-23T08:23:31.098Z,38.83
2019-03-23T08:26:01.464Z,40.53
2019-03-23T08:28:32.539Z,40.07
2019-03-23T08:31:02.859Z,39.67
2019-03-23T08:33:33.243Z,39.57
2019-03-23T08:36:03.648Z,42.03
2019-03-23T08:38:36.309Z,36.70
2019-03-23T08:41:06.684Z,36.90
2019-03-23T08:43:37.129Z,37.57
2019-03-23T08:46:07.493Z,38.53
2019-03-23T08:48:37.928Z,36.00
2019-03-23T08:51:08.292Z,39.23
2019-03-23T08:53:38.655Z,36.53
2019-03-23T08:56:09.023Z,38.37
2019-03-23T08:58:38.452Z,38.13
2019-03-23T09:01:08.833Z,37.80
2019-03-23T09:03:39.217Z,38.65
2019-03-23T09:06:09.593Z,38.40
2019-03-23T09:08:40.117Z,38.00
2019-03-23T09:11:20.250Z,37.75
2019-03-23T09:13:42.604Z,39.03
2019-03-23T09:16:13.008Z,40.10
2019-03-23T09:18:43.409Z,37.40
2019-03-23T09:21:13.789Z,37.17
2019-03-23T09:23:44.222Z,37.75
2019-03-23T09:26:14.768Z,37.55
2019-03-23T09:28:45.199Z,37.42
2019-03-23T09:31:15.589Z,38.98
2019-03-23T09:33:45.968Z,38.92
2019-03-23T09:36:16.347Z,39.70
2019-03-23T09:38:46.708Z,37.83
2019-03-23T09:41:17.072Z,42.83
2019-03-23T09:43:48.805Z,38.90
2019-03-23T09:46:19.172Z,38.67
2019-03-23T09:48:49.541Z,38.10
2019-03-23T09:51:19.918Z,36.80
2019-03-23T09:53:50.292Z,37.88
2019-03-23T09:56:20.650Z,41.40
2019-03-23T09:58:52.080Z,38.20
2019-03-23T10:01:22.447Z,44.20
2019-03-23T10:03:52.802Z,39.35
2019-03-23T10:06:23.168Z,39.45
2019-03-23T10:08:53.538Z,35.25
2019-03-23T10:11:24.880Z,37.20
2019-03-23T10:13:55.271Z,36.05
2019-03-23T10:16:25.668Z,36.93
2019-03-23T10:18:56.017Z,40.12
2019-03-23T10:21:26.376Z,38.73
2019-03-23T10:23:56.744Z,36.25
2019-03-23T10:26:28.976Z,41.88
2019-03-23T10:28:59.367Z,38.02
2019-03-23T10:31:29.735Z,36.68
2019-03-23T10:34:00.115Z,35.83
2019-03-23T10:36:30.623Z,34.25
2019-03-23T10:39:01.016Z,35.50
2019-03-23T10:41:32.469Z,33.25
2019-03-23T10:44:03.011Z,46.70
2019-03-23T10:46:33.680Z,40.07
2019-03-23T10:49:04.349Z,35.50
2019-03-23T10:51:34.708Z,34.33
2019-03-23T10:54:05.078Z,34.30
2019-03-23T10:56:35.466Z,33.33
2019-03-23T10:59:05.841Z,35.00
2019-03-23T11:01:36.231Z,27.07
2019-03-23T11:04:06.609Z,29.50
2019-03-23T11:06:37.024Z,33.53
2019-03-23T11:09:07.421Z,31.37
2019-03-23T11:11:37.867Z,30.60
2019-03-23T11:14:08.238Z,29.37
2019-03-23T11:16:38.686Z,29.97
2019-03-23T11:19:13.420Z,29.87
2019-03-23T11:21:41.108Z,30.77
2019-03-23T11:24:11.454Z,32.53
2019-03-23T11:26:41.831Z,28.33
2019-03-23T11:29:12.205Z,30.87
2019-03-23T11:31:42.607Z,31.10
2019-03-23T11:34:17.743Z,29.97
2019-03-23T11:36:45.684Z,28.60
2019-03-23T11:39:16.055Z,30.00
2019-03-23T11:41:46.529Z,26.57
2019-03-23T11:44:16.961Z,26.40
2019-03-23T11:46:48.746Z,25.93
2019-03-23T11:49:19.116Z,23.70
2019-03-23T11:51:49.610Z,24.83
2019-03-23T11:54:20.031Z,27.57
2019-03-23T11:56:50.711Z,25.20
2019-03-23T11:59:22.222Z,23.60
2019-03-23T12:01:52.620Z,26.50
2019-03-23T12:04:24.932Z,29.73
2019-03-23T12:06:55.357Z,29.37
2019-03-23T12:09:25.728Z,26.50
2019-03-23T12:11:56.191Z,26.30
2019-03-23T12:14:26.592Z,27.60
2019-03-23T12:16:57.296Z,29.57
2019-03-23T12:19:27.752Z,26.17
2019-03-23T12:21:58.123Z,26.80
2019-03-23T12:24:31.027Z,26.23
2019-03-23T12:27:01.680Z,27.37
2019-03-23T12:29:32.027Z,27.07
2019-03-23T12:32:02.401Z,26.87
2019-03-23T12:34:32.758Z,24.53
2019-03-23T12:37:03.112Z,22.23
2019-03-23T12:39:33.469Z,25.17
2019-03-23T12:42:03.838Z,24.30
2019-03-23T12:44:34.206Z,24.17
2019-03-23T12:47:04.583Z,24.30
2019-03-23T12:49:34.987Z,24.30
2019-03-23T12:52:05.446Z,22.30
2019-03-23T12:54:35.921Z,22.37
2019-03-23T12:57:06.436Z,23.63
2019-03-23T12:59:36.815Z,25.00
2019-03-23T13:02:07.304Z,25.10
2019-03-23T13:04:37.750Z,24.43
2019-03-23T13:07:08.203Z,24.33
2019-03-23T13:09:38.533Z,19.67
2019-03-23T13:12:08.918Z,19.13
2019-03-23T13:14:40.235Z,23.70
2019-03-23T13:17:10.629Z,25.67
2019-03-23T13:19:41.992Z,23.77
2019-03-23T13:22:12.369Z,19.27
2019-03-23T13:24:42.756Z,17.93
2019-03-23T13:27:13.146Z,16.93
2019-03-23T13:29:43.515Z,19.00
2019-03-23T13:32:13.945Z,17.07
2019-03-23T13:34:44.351Z,16.80
2019-03-23T13:37:16.180Z,17.13
2019-03-23T13:39:46.618Z,16.40
2019-03-23T13:42:17.011Z,16.40
2019-03-23T13:44:47.365Z,15.40
2019-03-23T13:47:17.745Z,15.87
2019-03-23T13:49:48.445Z,16.90
2019-03-23T13:52:19.862Z,14.73
2019-03-23T13:54:50.284Z,16.80
2019-03-23T13:57:20.633Z,15.37
2019-03-23T13:59:51.972Z,16.90
2019-03-23T14:02:22.441Z,16.10
2019-03-23T14:04:53.025Z,15.83
2019-03-23T14:07:23.408Z,14.07
2019-03-23T14:09:53.793Z,14.40
2019-03-23T14:12:24.502Z,14.93
2019-03-23T14:14:55.255Z,14.17
2019-03-23T14:17:25.872Z,16.07
2019-03-23T14:19:56.293Z,15.93
2019-03-23T14:22:26.704Z,13.33
2019-03-23T14:24:57.081Z,14.60
2019-03-23T14:27:27.472Z,14.03
2019-03-23T14:29:57.848Z,13.90
2019-03-23T14:32:28.215Z,13.73
2019-03-23T14:34:58.589Z,12.90
2019-03-23T14:37:28.953Z,12.90
2019-03-23T14:39:59.336Z,12.50
2019-03-23T14:42:29.993Z,13.07
2019-03-23T14:45:00.551Z,13.40
2019-03-23T14:47:31.001Z,12.17
2019-03-23T14:50:01.368Z,12.37
2019-03-23T14:52:31.757Z,11.50
2019-03-23T14:55:02.132Z,12.03
2019-03-23T14:57:32.502Z,12.00
2019-03-23T15:00:03.380Z,10.67
2019-03-23T15:02:34.435Z,9.97
2019-03-23T15:05:06.858Z,9.30
2019-03-23T15:07:39.021Z,9.10
2019-03-23T15:10:09.833Z,8.30
2019-03-23T15:12:40.239Z,8.73
2019-03-23T15:15:10.601Z,8.20
2019-03-23T15:17:48.428Z,7.40
2019-03-23T15:20:13.311Z,6.77
2019-03-23T15:22:43.665Z,6.33
2019-03-23T15:25:14.401Z,7.93
2019-03-23T15:27:44.781Z,7.73
2019-03-23T15:30:15.236Z,6.07
2019-03-23T15:32:45.670Z,8.00
2019-03-23T15:35:16.311Z,5.67
2019-03-23T15:37:47.468Z,5.93
2019-03-23T15:40:17.862Z,6.67
2019-03-23T15:42:48.258Z,6.90
2019-03-23T15:45:19.257Z,8.03
2019-03-23T15:47:49.639Z,7.67
2019-03-23T15:50:20.043Z,7.33
2019-03-23T15:52:52.297Z,7.87
2019-03-23T15:55:22.910Z,7.20
2019-03-23T15:57:53.230Z,7.33
2019-03-23T16:00:23.602Z,6.90
2019-03-23T16:02:54.585Z,7.33
2019-03-23T16:05:25.303Z,6.87
2019-03-23T16:07:55.756Z,8.70
2019-03-23T16:10:26.544Z,7.57
2019-03-23T16:12:57.018Z,9.50
2019-03-23T16:15:27.609Z,10.30
2019-03-23T16:17:57.976Z,11.07
2019-03-23T16:20:28.501Z,10.80
2019-03-23T16:22:59.132Z,11.23
2019-03-23T16:25:30.120Z,11.43
2019-03-23T16:28:00.857Z,12.67
2019-03-23T16:30:32.182Z,12.70
2019-03-23T16:33:02.539Z,12.13
2019-03-23T16:35:32.910Z,13.80
2019-03-23T16:38:03.289Z,13.67
2019-03-23T16:40:33.835Z,18.93
2019-03-23T16:43:06.265Z,29.00
2019-03-23T16:45:36.250Z,31.63
2019-03-23T16:48:06.647Z,36.27
2019-03-23T16:50:37.036Z,31.80
2019-03-23T16:53:07.555Z,37.90
2019-03-23T16:55:38.236Z,37.13
2019-03-23T16:58:15.934Z,38.73
2019-03-23T17:00:41.182Z,38.50
2019-03-23T17:03:12.611Z,37.07
2019-03-23T17:05:43.470Z,35.73
2019-03-23T17:08:14.150Z,37.27
2019-03-23T17:10:44.935Z,36.07
2019-03-23T17:13:15.893Z,35.80
2019-03-23T17:15:46.387Z,35.17
2019-03-23T17:18:16.825Z,38.07
2019-03-23T17:20:48.294Z,39.83
2019-03-23T17:23:18.666Z,38.20
2019-03-23T17:25:49.021Z,40.60
2019-03-23T17:28:20.521Z,39.63
2019-03-23T17:30:52.106Z,38.67
2019-03-23T17:33:22.469Z,37.13
2019-03-23T17:35:52.879Z,38.33
2019-03-23T17:38:23.227Z,38.43
2019-03-23T17:40:55.024Z,39.00
2019-03-23T17:43:25.412Z,40.97
2019-03-23T17:45:55.858Z,42.03
2019-03-23T17:48:26.249Z,42.60
2019-03-23T17:50:56.606Z,45.50
2019-03-23T17:53:26.989Z,43.17
2019-03-23T17:55:57.488Z,46.93
2019-03-23T17:58:29.424Z,43.97
2019-03-23T18:00:59.778Z,45.27
2019-03-23T18:03:30.167Z,44.97
2019-03-23T18:06:00.544Z,45.27
2019-03-23T18:08:30.917Z,43.57
2019-03-23T18:11:01.291Z,45.07
2019-03-23T18:13:32.781Z,43.17
2019-03-23T18:16:03.153Z,43.33
2019-03-23T18:18:33.527Z,39.63
2019-03-23T18:21:03.908Z,41.07
2019-03-23T18:23:34.281Z,39.83
2019-03-23T18:26:04.655Z,39.73
2019-03-23T18:28:35.026Z,42.53
2019-03-23T18:31:05.395Z,48.40
2019-03-23T18:33:35.768Z,37.30
2019-03-23T18:36:06.142Z,37.87
2019-03-23T18:38:36.874Z,41.23
2019-03-23T18:41:07.332Z,44.67
2019-03-23T18:43:38.486Z,35.53
2019-03-23T18:46:08.834Z,33.03
2019-03-23T18:48:39.212Z,33.23
2019-03-23T18:51:09.582Z,35.77
2019-03-23T18:53:39.942Z,31.43
2019-03-23T18:56:10.343Z,30.47
2019-03-23T18:58:40.746Z,31.53
2019-03-23T19:01:12.460Z,31.07
2019-03-23T19:03:42.845Z,31.37
2019-03-23T19:06:15.967Z,29.23
2019-03-23T19:08:46.427Z,31.27
2019-03-23T19:11:16.887Z,32.97
2019-03-23T19:13:48.596Z,57.10
2019-03-23T19:16:19.463Z,26.50
2019-03-23T19:18:49.846Z,28.20
2019-03-23T19:21:20.245Z,26.63
2019-03-23T19:23:50.678Z,27.57
2019-03-23T19:26:23.842Z,25.67
2019-03-23T19:28:54.265Z,25.40
2019-03-23T19:31:28.080Z,26.50
2019-03-23T19:33:58.699Z,25.10
2019-03-23T19:36:29.302Z,29.57
2019-03-23T19:39:00.226Z,24.47
2019-03-23T19:41:30.638Z,23.17
2019-03-23T19:44:01.032Z,23.83
2019-03-23T19:46:31.432Z,24.50
2019-03-23T19:49:01.801Z,22.93
2019-03-23T19:51:32.246Z,23.57
2019-03-23T19:54:02.655Z,24.07
2019-03-23T19:56:33.032Z,25.80
2019-03-23T19:59:03.494Z,26.03
2019-03-23T20:01:34.581Z,25.27
2019-03-23T20:04:06.454Z,22.03
2019-03-23T20:06:36.769Z,21.27
2019-03-23T20:09:08.513Z,23.50
2019-03-23T20:11:38.898Z,22.90
2019-03-23T20:14:09.276Z,22.70
2019-03-23T20:16:40.390Z,25.90
2019-03-23T20:19:11.649Z,24.13
2019-03-23T20:21:42.026Z,26.30
2019-03-23T20:24:12.440Z,24.83
2019-03-23T20:26:42.840Z,25.03
2019-03-23T20:29:13.243Z,24.27
2019-03-23T20:31:45.718Z,26.93
2019-03-23T20:34:16.099Z,26.00
2019-03-23T20:36:46.580Z,26.50
2019-03-23T20:39:16.963Z,27.03
2019-03-23T20:41:48.090Z,27.70
2019-03-23T20:44:18.967Z,30.43
2019-03-23T20:46:49.491Z,26.50
2019-03-23T20:49:20.364Z,28.93
2019-03-23T20:51:52.273Z,24.93
2019-03-23T20:54:24.309Z,27.70
2019-03-23T20:56:54.687Z,28.17
2019-03-23T20:59:25.165Z,26.73
2019-03-23T21:01:55.652Z,25.67
2019-03-23T21:04:26.021Z,25.47
2019-03-23T21:06:57.493Z,24.73
2019-03-23T21:09:28.199Z,27.33
2019-03-23T21:11:59.251Z,24.53
2019-03-23T21:14:29.677Z,24.00
2019-03-23T21:17:00.073Z,24.13
2019-03-23T21:19:30.983Z,21.63
2019-03-23T21:22:01.818Z,20.30
2019-03-23T21:24:33.121Z,20.57
2019-03-23T21:27:03.498Z,19.63
2019-03-23T21:29:33.877Z,19.07
2019-03-23T21:32:04.272Z,17.33
2019-03-23T21:34:34.639Z,17.93
2019-03-23T21:37:05.056Z,16.20
2019-03-23T21:39:35.453Z,16.00
2019-03-23T21:42:05.831Z,16.03
2019-03-23T21:44:36.262Z,17.00
2019-03-23T21:47:06.671Z,16.00
2019-03-23T21:49:37.431Z,16.13
2019-03-23T21:52:08.491Z,15.23
2019-03-23T21:54:38.888Z,24.73
2019-03-23T21:57:09.293Z,16.03
2019-03-23T21:59:39.694Z,14.37
2019-03-23T22:02:10.087Z,13.73
2019-03-23T22:04:42.854Z,12.47
2019-03-23T22:07:14.221Z,14.20
2019-03-23T22:09:44.654Z,15.43
2019-03-23T22:12:15.102Z,13.47
2019-03-23T22:14:45.863Z,15.10
2019-03-23T22:17:16.252Z,13.60
2019-03-23T22:19:46.624Z,20.37
2019-03-23T22:22:17.014Z,13.53
2019-03-23T22:24:47.409Z,14.23
2019-03-23T22:27:19.188Z,14.13
2019-03-23T22:29:49.742Z,11.43
2019-03-23T22:32:21.724Z,12.40
2019-03-23T22:34:52.117Z,11.47
2019-03-23T22:37:22.490Z,11.90
2019-03-23T22:39:53.594Z,12.40
2019-03-23T22:42:24.041Z,12.50
2019-03-23T22:44:54.430Z,11.27
2019-03-23T22:47:27.311Z,14.27
2019-03-23T22:49:58.685Z,12.93
2019-03-23T22:52:29.090Z,11.37
2019-03-23T22:54:59.475Z,11.40
2019-03-23T22:57:29.842Z,11.00
2019-03-23T23:00:00.578Z,11.40
2019-03-23T23:02:31.155Z,11.73
2019-03-23T23:05:01.544Z,11.10
2019-03-23T23:07:32.005Z,12.20
2019-03-23T23:10:02.316Z,12.33
2019-03-23T23:12:32.773Z,11.87
2019-03-23T23:15:04.723Z,12.70
2019-03-23T23:17:35.504Z,11.93
2019-03-23T23:20:07.237Z,11.90
2019-03-23T23:22:39.649Z,10.53
2019-03-23T23:25:10.421Z,11.50
2019-03-23T23:27:40.897Z,11.63
2019-03-23T23:30:11.669Z,12.07
2019-03-23T23:32:42.057Z,12.97
2019-03-23T23:35:12.407Z,12.17
2019-03-23T23:37:42.783Z,11.73
2019-03-23T23:40:13.133Z,11.87
2019-03-23T23:42:44.637Z,12.43
2019-03-23T23:45:16.116Z,18.67
2019-03-23T23:47:46.511Z,13.07
2019-03-23T23:50:16.911Z,10.80
2019-03-23T23:52:48.363Z,12.03
2019-03-23T23:55:18.878Z,17.90
2019-03-23T23:57:49.294Z,15.30
